createdAt,value
2023-09-13T00:00:33.688Z,95461.72
2023-09-13T00:01:37.390Z,95461.72
2023-09-13T00:02:41.995Z,95460.97
2023-09-13T00:03:45.435Z,95466.56
2023-09-13T00:04:47.862Z,95472.91
2023-09-13T00:05:50.903Z,95474.22
2023-09-13T00:06:52.791Z,95469.91
2023-09-13T00:07:55.601Z,95472.47
2023-09-13T00:08:57.614Z,95481.38
2023-09-13T00:10:02.574Z,95486.22
2023-09-13T00:11:05.079Z,95481.91
2023-09-13T00:12:08.425Z,95487.25
2023-09-13T00:13:12.033Z,95490.84
2023-09-13T00:14:14.017Z,95495.66
2023-09-13T00:15:16.889Z,95502.03
2023-09-13T00:16:19.104Z,95493.63
2023-09-13T00:17:22.215Z,95492.84
2023-09-13T00:18:25.200Z,95487.25
2023-09-13T00:19:28.808Z,95494.38
2023-09-13T00:20:31.717Z,95498.44
2023-09-13T00:21:34.485Z,95498.44
2023-09-13T00:22:37.385Z,95499.22
2023-09-13T00:23:39.532Z,95491.81
2023-09-13T00:24:42.636Z,95491.59
2023-09-13T00:25:44.562Z,95489.06
2023-09-13T00:26:46.630Z,95481.66
2023-09-13T00:27:49.483Z,95491.81
2023-09-13T00:28:52.947Z,95490.28
2023-09-13T00:29:55.920Z,95481.22
2023-09-13T00:30:59.130Z,95492.34
2023-09-13T00:32:02.860Z,95478.88
2023-09-13T00:33:05.436Z,95474.09
2023-09-13T00:34:08.762Z,95476.66
2023-09-13T00:35:10.774Z,95480.75
2023-09-13T00:36:14.891Z,95482.00
2023-09-13T00:37:16.944Z,95483.28
2023-09-13T00:38:19.855Z,95488.13
2023-09-13T00:39:21.695Z,95480.25
2023-09-13T00:40:23.667Z,95492.19
2023-09-13T00:41:26.756Z,95492.75
2023-09-13T00:42:29.440Z,95488.41
2023-09-13T00:43:32.297Z,95502.91
2023-09-13T00:44:35.527Z,95502.16
2023-09-13T00:45:38.741Z,95497.09
2023-09-13T00:46:41.774Z,95494.31
2023-09-13T00:47:45.930Z,95493.53
2023-09-13T00:48:48.441Z,95498.38
2023-09-13T00:49:51.681Z,95504.72
2023-09-13T00:50:54.508Z,95505.50
2023-09-13T00:51:59.930Z,95493.53
2023-09-13T00:53:02.039Z,95497.63
2023-09-13T00:54:05.600Z,95497.63
2023-09-13T00:55:10.253Z,95496.09
2023-09-13T00:56:14.389Z,95502.97
2023-09-13T00:57:16.458Z,95505.78
2023-09-13T00:58:20.510Z,95502.97
2023-09-13T00:59:23.464Z,95504.25
2023-09-13T01:00:28.872Z,95508.31
2023-09-13T01:01:31.553Z,95509.84
2023-09-13T01:02:36.300Z,95504.25
2023-09-13T01:03:39.886Z,95513.16
2023-09-13T01:04:43.077Z,95510.88
2023-09-13T01:05:47.331Z,95510.88
2023-09-13T01:06:49.522Z,95512.41
2023-09-13T01:07:52.557Z,95512.16
2023-09-13T01:08:54.715Z,95514.97
2023-09-13T01:09:57.994Z,95507.09
2023-09-13T01:10:59.932Z,95511.94
2023-09-13T01:12:03.377Z,95514.72
2023-09-13T01:13:05.377Z,95503.53
2023-09-13T01:14:10.281Z,95506.84
2023-09-13T01:15:13.881Z,95508.91
2023-09-13T01:16:25.758Z,95510.19
2023-09-13T01:17:35.451Z,95512.97
2023-09-13T01:18:44.090Z,95506.63
2023-09-13T01:19:53.508Z,95517.03
2023-09-13T01:21:12.367Z,95511.44
2023-09-13T01:22:39.121Z,95516.81
2023-09-13T01:24:06.667Z,95518.09
2023-09-13T01:25:34.700Z,95515.28
2023-09-13T01:26:55.946Z,95506.63
2023-09-13T01:28:12.059Z,95498.75
2023-09-13T01:29:18.273Z,95500.81
2023-09-13T01:30:24.285Z,95500.81
2023-09-13T01:31:28.536Z,95499.31
2023-09-13T01:32:34.872Z,95496.25
2023-09-13T01:33:38.284Z,95494.72
2023-09-13T01:34:40.251Z,95492.19
2023-09-13T01:35:43.101Z,95495.47
2023-09-13T01:36:45.248Z,95489.91
2023-09-13T01:37:48.379Z,95503.13
2023-09-13T01:38:50.484Z,95495.47
2023-09-13T01:39:53.425Z,95499.06
2023-09-13T01:41:11.665Z,95500.31
2023-09-13T01:42:15.504Z,95489.13
2023-09-13T01:43:17.968Z,95491.69
2023-09-13T01:44:22.905Z,95490.94
2023-09-13T01:45:25.819Z,95490.19
2023-09-13T01:46:35.172Z,95491.44
2023-09-13T01:47:39.121Z,95501.13
2023-09-13T01:48:42.978Z,95501.88
2023-09-13T01:49:47.556Z,95494.03
2023-09-13T01:50:51.478Z,95499.63
2023-09-13T01:51:53.632Z,95494.22
2023-09-13T01:52:55.594Z,95497.00
2023-09-13T01:53:58.477Z,95499.06
2023-09-13T01:55:01.231Z,95494.72
2023-09-13T01:56:04.096Z,95498.81
2023-09-13T01:57:06.163Z,95505.91
2023-09-13T01:58:09.910Z,95508.72
2023-09-13T01:59:11.982Z,95504.41
2023-09-13T02:00:17.951Z,95505.91
2023-09-13T02:01:20.700Z,95510.00
2023-09-13T02:02:23.791Z,95503.88
2023-09-13T02:03:25.934Z,95511.50
2023-09-13T02:04:34.517Z,95515.59
2023-09-13T02:05:36.652Z,95509.00
2023-09-13T02:06:40.480Z,95514.63
2023-09-13T02:07:46.799Z,95514.13
2023-09-13T02:08:52.361Z,95519.69
2023-09-13T02:09:55.319Z,95516.16
2023-09-13T02:10:59.156Z,95509.78
2023-09-13T02:12:01.496Z,95513.13
2023-09-13T02:13:04.545Z,95517.19
2023-09-13T02:14:06.577Z,95517.19
2023-09-13T02:15:10.876Z,95521.25
2023-09-13T02:16:19.514Z,95518.47
2023-09-13T02:17:22.416Z,95524.06
2023-09-13T02:18:24.414Z,95528.13
2023-09-13T02:19:27.445Z,95540.06
2023-09-13T02:20:29.352Z,95532.19
2023-09-13T02:21:32.244Z,95536.28
2023-09-13T02:22:35.125Z,95544.66
2023-09-13T02:23:38.149Z,95543.13
2023-09-13T02:24:40.077Z,95528.41
2023-09-13T02:25:45.792Z,95531.94
2023-09-13T02:26:49.009Z,95537.53
2023-09-13T02:27:51.157Z,95540.34
2023-09-13T02:28:54.707Z,95542.19
2023-09-13T02:29:57.579Z,95540.66
2023-09-13T02:31:00.555Z,95543.19
2023-09-13T02:32:04.274Z,95535.56
2023-09-13T02:33:07.414Z,95545.44
2023-09-13T02:34:09.343Z,95541.38
2023-09-13T02:35:13.003Z,95542.66
2023-09-13T02:36:15.119Z,95544.94
2023-09-13T02:37:18.161Z,95545.69
2023-09-13T02:38:20.106Z,95540.09
2023-09-13T02:39:33.225Z,95548.47
2023-09-13T02:40:35.260Z,95540.09
2023-09-13T02:41:38.444Z,95543.66
2023-09-13T02:42:40.371Z,95542.38
2023-09-13T02:43:43.586Z,95548.72
2023-09-13T02:44:45.769Z,95554.31
2023-09-13T02:45:48.632Z,95559.91
2023-09-13T02:46:50.620Z,95556.59
2023-09-13T02:47:55.491Z,95557.84
2023-09-13T02:48:57.557Z,95560.16
2023-09-13T02:50:00.489Z,95557.34
2023-09-13T02:51:02.520Z,95558.09
2023-09-13T02:52:06.381Z,95561.66
2023-09-13T02:53:08.367Z,95558.63
2023-09-13T02:54:11.440Z,95560.16
2023-09-13T02:55:17.748Z,95567.03
2023-09-13T02:56:20.748Z,95561.44
2023-09-13T02:57:22.723Z,95562.69
2023-09-13T02:58:26.757Z,95558.41
2023-09-13T02:59:28.705Z,95562.44
2023-09-13T03:00:34.911Z,95549.22
2023-09-13T03:01:37.318Z,95557.41
2023-09-13T03:02:40.854Z,95553.81
2023-09-13T03:03:44.501Z,95551.03
2023-09-13T03:04:52.040Z,95552.31
2023-09-13T03:05:54.937Z,95548.22
2023-09-13T03:06:58.518Z,95549.53
2023-09-13T03:08:00.426Z,95546.72
2023-09-13T03:09:04.282Z,95548.22
2023-09-13T03:10:07.595Z,95552.31
2023-09-13T03:11:15.098Z,95548.78
2023-09-13T03:12:18.164Z,95545.97
2023-09-13T03:13:21.398Z,95553.81
2023-09-13T03:14:23.550Z,95555.13
2023-09-13T03:15:26.749Z,95549.53
2023-09-13T03:16:28.733Z,95557.91
2023-09-13T03:17:31.905Z,95554.88
2023-09-13T03:18:33.951Z,95552.81
2023-09-13T03:19:38.364Z,95552.06
2023-09-13T03:20:40.707Z,95546.47
2023-09-13T03:21:44.953Z,95538.09
2023-09-13T03:22:47.196Z,95543.69
2023-09-13T03:23:51.310Z,95542.66
2023-09-13T03:24:54.359Z,95537.06
2023-09-13T03:25:57.271Z,95544.19
2023-09-13T03:26:59.484Z,95544.19
2023-09-13T03:28:02.586Z,95541.13
2023-09-13T03:29:04.969Z,95535.56
2023-09-13T03:30:10.360Z,95537.59
2023-09-13T03:31:13.129Z,95538.34
2023-09-13T03:32:16.412Z,95538.84
2023-09-13T03:33:18.277Z,95540.38
2023-09-13T03:34:21.404Z,95539.59
2023-09-13T03:35:25.334Z,95536.59
2023-09-13T03:36:29.500Z,95540.66
2023-09-13T03:37:37.158Z,95538.38
2023-09-13T03:38:41.825Z,95540.41
2023-09-13T03:39:45.255Z,95546.78
2023-09-13T03:40:48.995Z,95538.44
2023-09-13T03:41:50.969Z,95536.91
2023-09-13T03:42:53.886Z,95541.00
2023-09-13T03:43:55.885Z,95540.22
2023-09-13T03:44:59.100Z,95530.53
2023-09-13T03:46:01.886Z,95530.03
2023-09-13T03:47:05.405Z,95535.41
2023-09-13T03:48:07.812Z,95534.63
2023-09-13T03:49:13.940Z,95533.63
2023-09-13T03:50:16.034Z,95527.53
2023-09-13T03:51:19.286Z,95532.38
2023-09-13T03:52:22.455Z,95530.84
2023-09-13T03:53:25.196Z,95541.25
2023-09-13T03:54:28.278Z,95540.50
2023-09-13T03:55:30.320Z,95535.69
2023-09-13T03:56:33.374Z,95533.38
2023-09-13T03:57:35.487Z,95533.69
2023-09-13T03:58:37.405Z,95531.88
2023-09-13T03:59:40.299Z,95535.44
2023-09-13T04:00:42.375Z,95538.22
2023-09-13T04:01:45.912Z,95538.22
2023-09-13T04:02:48.847Z,95543.06
2023-09-13T04:03:51.813Z,95542.31
2023-09-13T04:04:55.803Z,95536.72
2023-09-13T04:05:58.141Z,95545.09
2023-09-13T04:07:02.902Z,95543.56
2023-09-13T04:08:05.412Z,95541.25
2023-09-13T04:09:10.378Z,95538.97
2023-09-13T04:10:12.417Z,95543.56
2023-09-13T04:11:15.353Z,95546.34
2023-09-13T04:12:19.990Z,95540.78
2023-09-13T04:13:23.035Z,95539.25
2023-09-13T04:14:25.000Z,95540.00
2023-09-13T04:15:28.301Z,95536.97
2023-09-13T04:16:30.373Z,95534.19
2023-09-13T04:17:33.652Z,95539.25
2023-09-13T04:18:35.592Z,95539.78
2023-09-13T04:19:38.627Z,95533.44
2023-09-13T04:20:42.893Z,95536.22
2023-09-13T04:21:45.776Z,95536.22
2023-09-13T04:22:49.158Z,95533.94
2023-09-13T04:23:51.083Z,95537.97
2023-09-13T04:24:54.075Z,95547.41
2023-09-13T04:25:56.146Z,95542.56
2023-09-13T04:26:59.535Z,95548.91
2023-09-13T04:28:01.821Z,95553.22
2023-09-13T04:29:07.157Z,95551.69
2023-09-13T04:30:11.085Z,95548.16
2023-09-13T04:31:14.307Z,95555.78
2023-09-13T04:32:17.425Z,95550.94
2023-09-13T04:33:21.198Z,95555.03
2023-09-13T04:34:24.187Z,95560.56
2023-09-13T04:35:26.166Z,95556.75
2023-09-13T04:36:29.028Z,95565.16
2023-09-13T04:37:34.386Z,95561.06
2023-09-13T04:38:40.909Z,95553.97
2023-09-13T04:39:42.992Z,95559.56
2023-09-13T04:40:45.956Z,95562.09
2023-09-13T04:41:47.935Z,95564.38
2023-09-13T04:42:56.161Z,95563.63
2023-09-13T04:43:59.699Z,95562.09
2023-09-13T04:45:04.286Z,95563.38
2023-09-13T04:46:07.616Z,95560.56
2023-09-13T04:47:09.761Z,95562.38
2023-09-13T04:48:12.721Z,95564.66
2023-09-13T04:49:14.650Z,95561.09
2023-09-13T04:50:17.833Z,95563.13
2023-09-13T04:51:19.829Z,95559.06
2023-09-13T04:52:23.035Z,95562.38
2023-09-13T04:53:26.283Z,95566.19
2023-09-13T04:54:30.577Z,95565.19
2023-09-13T04:55:33.018Z,95564.69
2023-09-13T04:56:36.060Z,95570.28
2023-09-13T04:57:37.974Z,95570.28
2023-09-13T04:58:41.032Z,95578.66
2023-09-13T04:59:44.764Z,95570.03
2023-09-13T05:00:48.395Z,95571.78
2023-09-13T05:01:50.620Z,95576.38
2023-09-13T05:02:53.832Z,95581.97
2023-09-13T05:03:57.394Z,95584.00
2023-09-13T05:05:00.470Z,95584.75
2023-09-13T05:06:02.404Z,95588.31
2023-09-13T05:07:08.424Z,95589.09
2023-09-13T05:08:10.329Z,95589.59
2023-09-13T05:09:13.270Z,95590.34
2023-09-13T05:10:16.613Z,95589.59
2023-09-13T05:11:19.779Z,95595.19
2023-09-13T05:12:21.879Z,95589.59
2023-09-13T05:13:24.860Z,95592.38
2023-09-13T05:14:27.422Z,95595.19
2023-09-13T05:15:30.359Z,95595.94
2023-09-13T05:16:32.311Z,95600.75
2023-09-13T05:17:35.408Z,95595.19
2023-09-13T05:18:37.367Z,95594.41
2023-09-13T05:19:40.228Z,95602.81
2023-09-13T05:20:42.052Z,95599.25
2023-09-13T05:21:44.933Z,95604.84
2023-09-13T05:22:47.434Z,95594.41
2023-09-13T05:23:50.452Z,95599.25
2023-09-13T05:24:52.395Z,95596.47
2023-09-13T05:25:57.752Z,95592.13
2023-09-13T05:26:59.683Z,95602.28
2023-09-13T05:28:04.214Z,95601.50
2023-09-13T05:29:06.208Z,95605.06
2023-09-13T05:30:10.564Z,95614.47
2023-09-13T05:31:12.885Z,95603.81
2023-09-13T05:32:15.818Z,95605.84
2023-09-13T05:33:17.927Z,95605.09
2023-09-13T05:34:20.805Z,95615.50
2023-09-13T05:35:23.305Z,95613.94
2023-09-13T05:36:25.191Z,95613.94
2023-09-13T05:37:28.189Z,95618.03
2023-09-13T05:38:32.030Z,95614.97
2023-09-13T05:39:35.070Z,95623.13
2023-09-13T05:40:37.009Z,95617.03
2023-09-13T05:41:42.328Z,95621.31
2023-09-13T05:42:44.211Z,95617.78
2023-09-13T05:43:47.826Z,95624.66
2023-09-13T05:44:49.825Z,95618.56
2023-09-13T05:45:52.857Z,95617.28
2023-09-13T05:46:55.016Z,95616.28
2023-09-13T05:48:00.706Z,95625.41
2023-09-13T05:49:02.698Z,95630.97
2023-09-13T05:50:06.405Z,95620.56
2023-09-13T05:51:08.365Z,95624.66
2023-09-13T05:52:11.282Z,95630.22
2023-09-13T05:53:15.165Z,95627.94
2023-09-13T05:54:18.383Z,95633.53
2023-09-13T05:55:20.530Z,95631.50
2023-09-13T05:56:25.721Z,95629.19
2023-09-13T05:57:30.513Z,95626.41
2023-09-13T05:58:34.141Z,95629.72
2023-09-13T05:59:40.826Z,95640.91
2023-09-13T06:00:44.999Z,95636.81
2023-09-13T06:01:46.959Z,95629.72
2023-09-13T06:02:50.122Z,95633.78
2023-09-13T06:03:52.056Z,95633.78
2023-09-13T06:04:55.007Z,95631.78
2023-09-13T06:05:57.791Z,95631.78
2023-09-13T06:07:00.763Z,95628.97
2023-09-13T06:08:02.648Z,95626.69
2023-09-13T06:09:05.972Z,95630.97
2023-09-13T06:10:09.114Z,95615.50
2023-09-13T06:11:12.022Z,95617.03
2023-09-13T06:12:14.367Z,95621.09
2023-09-13T06:13:18.651Z,95619.56
2023-09-13T06:14:20.562Z,95632.28
2023-09-13T06:15:23.588Z,95631.53
2023-09-13T06:16:26.185Z,95625.16
2023-09-13T06:17:29.229Z,95630.72
2023-09-13T06:18:31.532Z,95625.16
2023-09-13T06:19:35.022Z,95622.34
2023-09-13T06:20:37.067Z,95622.34
2023-09-13T06:21:39.970Z,95624.41
2023-09-13T06:22:42.461Z,95624.41
2023-09-13T06:23:45.559Z,95630.72
2023-09-13T06:24:47.818Z,95625.16
2023-09-13T06:25:50.676Z,95634.81
2023-09-13T06:26:53.746Z,95625.16
2023-09-13T06:27:56.887Z,95631.78
2023-09-13T06:29:00.384Z,95629.72
2023-09-13T06:30:03.718Z,95630.97
2023-09-13T06:31:05.954Z,95637.84
2023-09-13T06:32:19.050Z,95648.28
2023-09-13T06:33:40.770Z,95657.16
2023-09-13T06:34:45.700Z,95651.56
2023-09-13T06:35:48.458Z,95650.06
2023-09-13T06:36:52.088Z,95653.59
2023-09-13T06:37:54.944Z,95654.34
2023-09-13T06:38:58.158Z,95655.63
2023-09-13T06:40:00.856Z,95650.06
2023-09-13T06:41:04.207Z,95648.78
2023-09-13T06:42:25.399Z,95643.69
2023-09-13T06:43:33.277Z,95647.25
2023-09-13T06:44:45.606Z,95648.78
2023-09-13T06:46:02.621Z,95647.50
2023-09-13T06:47:08.145Z,95649.03
2023-09-13T06:48:11.716Z,95650.06
2023-09-13T06:49:15.482Z,95647.25
2023-09-13T06:50:26.952Z,95651.06
2023-09-13T06:53:07.961Z,95646.47
2023-09-13T06:54:10.001Z,95650.56
2023-09-13T06:55:16.263Z,95652.09
2023-09-13T06:56:21.254Z,95648.78
2023-09-13T06:58:33.133Z,95657.94
2023-09-13T06:59:49.483Z,95655.13
2023-09-13T07:01:21.131Z,95659.94
2023-09-13T07:02:31.123Z,95654.34
2023-09-13T07:03:41.374Z,95659.19
2023-09-13T07:06:12.048Z,95658.94
2023-09-13T07:07:15.027Z,95656.13
2023-09-13T07:08:17.183Z,95656.13
2023-09-13T07:09:20.160Z,95656.13
2023-09-13T07:10:22.096Z,95656.13
2023-09-13T07:11:27.393Z,95656.66
2023-09-13T07:12:29.502Z,95654.88
2023-09-13T07:13:32.424Z,95654.88
2023-09-13T07:14:34.440Z,95655.38
2023-09-13T07:15:40.153Z,95656.13
2023-09-13T07:16:42.173Z,95658.94
2023-09-13T07:17:45.215Z,95656.91
2023-09-13T07:18:47.544Z,95659.19
2023-09-13T07:19:51.255Z,95655.13
2023-09-13T07:20:53.161Z,95661.44
2023-09-13T07:21:56.010Z,95664.25
2023-09-13T07:22:57.944Z,95662.47
2023-09-13T07:24:00.880Z,95662.22
2023-09-13T07:25:04.932Z,95661.22
2023-09-13T07:26:08.934Z,95667.56
2023-09-13T07:27:11.419Z,95668.31
2023-09-13T07:28:14.282Z,95673.91
2023-09-13T07:29:16.190Z,95673.91
2023-09-13T07:30:20.226Z,95685.06
2023-09-13T07:31:23.531Z,95676.69
2023-09-13T07:32:27.469Z,95677.97
2023-09-13T07:33:29.381Z,95680.53
2023-09-13T07:34:32.911Z,95682.53
2023-09-13T07:35:35.203Z,95685.59
2023-09-13T07:36:38.273Z,95681.00
2023-09-13T07:37:40.206Z,95684.03
2023-09-13T07:38:43.239Z,95686.34
2023-09-13T07:39:45.385Z,95682.78
2023-09-13T07:40:47.442Z,95675.91
2023-09-13T07:41:50.375Z,95675.91
2023-09-13T07:42:52.340Z,95674.91
2023-09-13T07:43:55.263Z,95677.69
2023-09-13T07:44:57.292Z,95675.91
2023-09-13T07:46:00.475Z,95674.41
2023-09-13T07:47:03.797Z,95680.97
2023-09-13T07:48:06.245Z,95679.47
2023-09-13T07:49:09.195Z,95676.16
2023-09-13T07:50:29.969Z,95677.13
2023-09-13T07:51:33.113Z,95690.59
2023-09-13T07:53:00.510Z,95679.34
2023-09-13T07:54:05.234Z,95680.59
2023-09-13T07:55:08.230Z,95675.44
2023-09-13T07:56:11.165Z,95676.69
2023-09-13T07:57:13.141Z,95680.00
2023-09-13T07:58:16.041Z,95679.72
2023-09-13T07:59:20.156Z,95684.31
2023-09-13T08:00:23.260Z,95691.44
2023-09-13T08:01:25.250Z,95684.31
2023-09-13T08:02:29.507Z,95693.22
2023-09-13T08:03:31.582Z,95696.53
2023-09-13T08:04:34.711Z,95690.19
2023-09-13T08:05:36.719Z,95692.19
2023-09-13T08:06:42.411Z,95697.53
2023-09-13T08:07:45.932Z,95713.03
2023-09-13T08:08:48.796Z,95701.84
2023-09-13T08:09:50.922Z,95704.38
2023-09-13T08:10:54.453Z,95705.69
2023-09-13T08:11:56.554Z,95702.63
2023-09-13T08:12:59.478Z,95717.88
2023-09-13T08:14:01.424Z,95713.53
2023-09-13T08:15:05.442Z,95707.72
2023-09-13T08:16:07.709Z,95709.50
2023-09-13T08:17:10.773Z,95717.41
2023-09-13T08:18:17.520Z,95711.53
2023-09-13T08:19:20.479Z,95718.44
2023-09-13T08:20:23.652Z,95713.13
2023-09-13T08:21:26.557Z,95716.69
2023-09-13T08:22:39.228Z,95716.44
2023-09-13T08:23:43.403Z,95721.25
2023-09-13T08:24:45.254Z,95714.91
2023-09-13T08:25:48.231Z,95721.00
2023-09-13T08:26:50.225Z,95714.41
2023-09-13T08:27:55.138Z,95718.47
2023-09-13T08:28:57.375Z,95719.75
2023-09-13T08:30:00.297Z,95714.66
2023-09-13T08:31:02.463Z,95718.00
2023-09-13T08:32:07.018Z,95718.00
2023-09-13T08:33:11.725Z,95716.47
2023-09-13T08:34:16.141Z,95722.06
2023-09-13T08:35:18.118Z,95724.59
2023-09-13T08:36:22.763Z,95723.84
2023-09-13T08:37:25.340Z,95724.59
2023-09-13T08:38:28.344Z,95734.25
2023-09-13T08:39:30.449Z,95727.13
2023-09-13T08:40:33.563Z,95727.13
2023-09-13T08:41:35.993Z,95734.25
2023-09-13T08:42:41.537Z,95733.97
2023-09-13T08:43:45.282Z,95730.19
2023-09-13T08:44:49.130Z,95724.06
2023-09-13T08:45:52.625Z,95728.38
2023-09-13T08:46:59.647Z,95722.81
2023-09-13T08:48:03.093Z,95732.69
2023-09-13T08:49:08.924Z,95732.19
2023-09-13T08:50:13.433Z,95735.75
2023-09-13T08:51:18.659Z,95741.31
2023-09-13T08:52:23.179Z,95737.28
2023-09-13T08:53:27.443Z,95737.28
2023-09-13T08:54:37.957Z,95731.69
2023-09-13T08:55:48.494Z,95731.69
2023-09-13T08:56:50.502Z,95745.91
2023-09-13T08:57:54.632Z,95729.13
2023-09-13T08:58:56.619Z,95735.50
2023-09-13T08:59:59.699Z,95730.66
2023-09-13T09:01:05.116Z,95732.16
2023-09-13T09:02:16.605Z,95730.16
2023-09-13T09:03:22.146Z,95734.44
2023-09-13T09:04:25.243Z,95730.41
2023-09-13T09:05:31.451Z,95729.88
2023-09-13T09:06:34.801Z,95731.66
2023-09-13T09:07:37.089Z,95734.19
2023-09-13T09:08:41.463Z,95735.72
2023-09-13T09:09:45.562Z,95726.81
2023-09-13T09:10:53.017Z,95730.09
2023-09-13T09:11:58.776Z,95736.69
2023-09-13T09:13:03.123Z,95728.56
2023-09-13T09:14:09.687Z,95733.91
2023-09-13T09:15:15.103Z,95723.22
2023-09-13T09:16:19.002Z,95734.09
2023-09-13T09:17:26.128Z,95721.16
2023-09-13T09:18:31.573Z,95724.72
2023-09-13T09:19:34.815Z,95724.97
2023-09-13T09:20:39.660Z,95728.75
2023-09-13T09:21:43.013Z,95722.63
2023-09-13T09:22:45.278Z,95721.38
2023-09-13T09:23:48.574Z,95723.41
2023-09-13T09:24:51.197Z,95724.66
2023-09-13T09:25:55.108Z,95726.97
2023-09-13T09:26:57.441Z,95720.06
2023-09-13T09:28:01.343Z,95724.97
2023-09-13T09:29:12.949Z,95720.13
2023-09-13T09:30:19.086Z,95721.63
2023-09-13T09:31:25.186Z,95723.91
2023-09-13T09:32:29.871Z,95719.06
2023-09-13T09:33:33.127Z,95724.16
2023-09-13T09:34:39.607Z,95729.75
2023-09-13T09:35:54.542Z,95725.41
2023-09-13T09:37:05.018Z,95723.91
2023-09-13T09:38:21.811Z,95723.16
2023-09-13T09:39:24.767Z,95723.66
2023-09-13T09:40:29.228Z,95725.72
2023-09-13T09:41:34.205Z,95723.41
2023-09-13T09:42:38.460Z,95729.00
2023-09-13T09:43:45.644Z,95723.41
2023-09-13T09:44:47.957Z,95722.66
2023-09-13T09:45:51.268Z,95721.16
2023-09-13T09:46:53.373Z,95727.50
2023-09-13T09:47:57.968Z,95722.66
2023-09-13T09:49:00.763Z,95717.81
2023-09-13T09:50:05.870Z,95724.97
2023-09-13T09:51:09.844Z,95724.41
2023-09-13T09:52:13.269Z,95723.91
2023-09-13T09:53:18.282Z,95722.63
2023-09-13T09:54:21.767Z,95724.16
2023-09-13T09:55:26.309Z,95723.91
2023-09-13T09:56:29.443Z,95730.25
2023-09-13T09:57:33.143Z,95730.78
2023-09-13T09:58:36.285Z,95716.81
2023-09-13T09:59:38.738Z,95729.25
2023-09-13T10:00:48.993Z,95719.38
2023-09-13T10:01:57.568Z,95724.19
2023-09-13T10:03:00.817Z,95721.91
2023-09-13T10:04:09.719Z,95727.50
2023-09-13T10:05:14.203Z,95723.16
2023-09-13T10:06:19.830Z,95728.75
2023-09-13T10:07:22.894Z,95730.06
2023-09-13T10:08:39.293Z,95727.00
2023-09-13T10:09:42.977Z,95723.97
2023-09-13T10:10:45.260Z,95723.97
2023-09-13T10:11:48.136Z,95721.41
2023-09-13T10:12:52.098Z,95722.47
2023-09-13T10:13:55.081Z,95723.22
2023-09-13T10:14:58.898Z,95728.06
2023-09-13T10:16:03.419Z,95728.06
2023-09-13T10:17:07.233Z,95726.50
2023-09-13T10:18:13.867Z,95717.88
2023-09-13T10:19:16.307Z,95724.25
2023-09-13T10:20:21.449Z,95730.59
2023-09-13T10:21:26.118Z,95731.34
2023-09-13T10:22:31.405Z,95731.34
2023-09-13T10:23:39.267Z,95730.59
2023-09-13T10:24:51.122Z,95727.81
2023-09-13T10:25:54.646Z,95731.84
2023-09-13T10:26:58.424Z,95729.84
2023-09-13T10:28:02.331Z,95729.84
2023-09-13T10:29:13.110Z,95730.31
2023-09-13T10:30:18.849Z,95722.44
2023-09-13T10:31:27.025Z,95724.47
2023-09-13T10:32:33.854Z,95720.94
2023-09-13T10:33:37.118Z,95722.19
2023-09-13T10:34:48.533Z,95721.44
2023-09-13T10:35:55.569Z,95729.31
2023-09-13T10:37:06.489Z,95731.34
2023-09-13T10:38:14.648Z,95722.97
2023-09-13T10:39:23.619Z,95722.97
2023-09-13T10:40:34.409Z,95720.19
2023-09-13T10:41:44.020Z,95724.47
2023-09-13T10:42:47.447Z,95725.22
2023-09-13T10:43:51.227Z,95716.34
2023-09-13T10:44:54.371Z,95717.59
2023-09-13T10:45:57.594Z,95716.84
2023-09-13T10:46:59.855Z,95714.81
2023-09-13T10:48:04.794Z,95717.59
2023-09-13T10:49:07.011Z,95718.88
2023-09-13T10:50:11.078Z,95722.97
2023-09-13T10:51:16.231Z,95712.53
2023-09-13T10:52:22.498Z,95709.00
2023-09-13T10:53:25.074Z,95720.94
2023-09-13T10:54:30.533Z,95716.09
2023-09-13T10:55:34.094Z,95712.53
2023-09-13T10:56:36.872Z,95716.59
2023-09-13T10:57:41.856Z,95712.53
2023-09-13T10:58:46.066Z,95706.19
2023-09-13T10:59:50.533Z,95711.78
2023-09-13T11:00:55.944Z,95705.41
2023-09-13T11:01:59.501Z,95719.94
2023-09-13T11:03:01.939Z,95717.63
2023-09-13T11:04:06.810Z,95709.75
2023-09-13T11:05:10.624Z,95720.94
2023-09-13T11:06:16.364Z,95709.50
2023-09-13T11:07:20.926Z,95721.97
2023-09-13T11:08:29.799Z,95727.31
2023-09-13T11:09:33.045Z,95724.53
2023-09-13T11:10:35.495Z,95723.00
2023-09-13T11:11:38.544Z,95726.31
2023-09-13T11:12:41.232Z,95726.06
2023-09-13T11:13:45.207Z,95722.50
2023-09-13T11:14:51.364Z,95719.72
2023-09-13T11:15:57.102Z,95720.97
2023-09-13T11:17:10.752Z,95719.72
2023-09-13T11:18:17.648Z,95725.31
2023-09-13T11:19:27.109Z,95716.69
2023-09-13T11:20:36.207Z,95718.72
2023-09-13T11:21:48.963Z,95713.88
2023-09-13T11:24:31.355Z,95716.16
2023-09-13T11:25:58.408Z,95717.44
2023-09-13T11:27:12.728Z,95719.47
2023-09-13T11:28:30.378Z,95717.97
2023-09-13T11:29:41.533Z,95720.50
2023-09-13T11:30:51.807Z,95717.72
2023-09-13T11:32:02.308Z,95715.41
2023-09-13T11:33:06.388Z,95715.94
2023-09-13T11:34:14.558Z,95715.16
2023-09-13T11:35:17.780Z,95720.75
2023-09-13T11:36:23.760Z,95712.88
2023-09-13T11:37:27.693Z,95716.97
2023-09-13T11:38:31.598Z,95716.22
2023-09-13T11:39:33.845Z,95714.16
2023-09-13T11:40:37.151Z,95715.44
2023-09-13T11:41:54.194Z,95711.88
2023-09-13T11:43:05.615Z,95718.75
2023-09-13T11:44:24.545Z,95719.50
2023-09-13T11:45:37.407Z,95711.13
2023-09-13T11:46:40.004Z,95718.75
2023-09-13T11:47:43.304Z,95715.19
2023-09-13T11:48:58.403Z,95715.97
2023-09-13T11:50:12.638Z,95714.66
2023-09-13T11:51:22.281Z,95723.84
2023-09-13T11:52:30.517Z,95713.91
2023-09-13T11:53:36.201Z,95714.66
2023-09-13T11:55:05.379Z,95714.66
2023-09-13T11:56:44.065Z,95714.66
2023-09-13T11:58:59.464Z,95718.00
2023-09-13T12:00:07.024Z,95711.91
2023-09-13T12:01:15.278Z,95714.19
2023-09-13T12:02:21.189Z,95711.91
2023-09-13T12:03:41.411Z,95711.63
2023-09-13T12:04:53.915Z,95720.00
2023-09-13T12:06:17.850Z,95715.94
2023-09-13T12:07:21.471Z,95714.41
2023-09-13T12:08:30.493Z,95714.41
2023-09-13T12:09:37.765Z,95717.22
2023-09-13T12:10:41.726Z,95719.50
2023-09-13T12:11:52.415Z,95715.94
2023-09-13T12:13:08.527Z,95714.41
2023-09-13T12:14:29.159Z,95718.47
2023-09-13T12:17:04.460Z,95718.47
2023-09-13T12:18:07.500Z,95717.72
2023-09-13T12:19:12.996Z,95715.69
2023-09-13T12:20:14.962Z,95714.16
2023-09-13T12:21:18.311Z,95722.56
2023-09-13T12:22:23.797Z,95728.13
2023-09-13T12:23:28.783Z,95734.47
2023-09-13T12:24:31.925Z,95733.22
2023-09-13T12:25:36.792Z,95729.44
2023-09-13T12:26:38.804Z,95727.91
2023-09-13T12:27:42.455Z,95720.28
2023-09-13T12:28:47.046Z,95725.13
2023-09-13T12:29:50.290Z,95728.69
2023-09-13T12:30:52.782Z,95721.53
2023-09-13T12:31:58.566Z,95721.53
2023-09-13T12:33:00.660Z,95725.63
2023-09-13T12:34:03.998Z,95725.63
2023-09-13T12:35:07.116Z,95730.47
2023-09-13T12:36:11.119Z,95727.66
2023-09-13T12:37:14.804Z,95721.31
2023-09-13T12:38:18.101Z,95729.72
2023-09-13T12:39:21.848Z,95730.47
2023-09-13T12:40:28.864Z,95734.50
2023-09-13T12:41:33.471Z,95729.72
2023-09-13T12:42:39.863Z,95733.75
2023-09-13T12:43:43.857Z,95727.41
2023-09-13T12:44:48.097Z,95733.75
2023-09-13T12:45:50.578Z,95728.69
2023-09-13T12:46:53.849Z,95725.13
2023-09-13T12:47:57.001Z,95727.91